Bevington, Iowa
Current Conditions -  °F | °C
As of 12:54 AM on Sunday 23 Nov 2014 (Local Time) from KDSM Reporting Station
Overcast Overcast  
Wind Chill: 55°   Ceiling: 1100
Heat Index: 55°   Visibility: 10mi
Dew Point: 50°   Wind: 15mph
Humidity: 83%   Direction: 200°SSW
Pressure: 29.62"   Gusts: NA
Location:  41.36°N, 93.79°W
Report Text: KDSM 230654Z 20013KT 10SM OVC011 13/10 A2962 RMK AO2 SLP030 T01280100
Loading
Personal Weather Stations






























Interactive Weather Map New forecast layout! Learn more

10-Day Weather Forecast

Advertisements
Track Severe Weather on mobile